createdAt,value
2018-12-27T00:00:34.068Z,28.6
2018-12-27T00:01:22.991Z,29.3
2018-12-27T00:02:13.930Z,29.8
2018-12-27T00:03:03.672Z,30.3
2018-12-27T00:03:53.489Z,30.8
2018-12-27T00:04:42.992Z,31.1
2018-12-27T00:05:32.745Z,31.4
2018-12-27T00:06:23.117Z,31.7
2018-12-27T00:07:13.422Z,32
2018-12-27T00:08:06.217Z,32.3
2018-12-27T00:08:53.539Z,32.5
2018-12-27T00:09:43.322Z,32.7
2018-12-27T00:10:34.601Z,32.9
2018-12-27T00:11:22.861Z,33.1
2018-12-27T00:12:14.331Z,33.3
2018-12-27T00:13:03.925Z,33.4
2018-12-27T00:13:54.249Z,33.5
2018-12-27T00:14:44.471Z,33.7
2018-12-27T00:33:06.891Z,27.5
2018-12-27T00:33:48.750Z,28.6
2018-12-27T00:34:38.664Z,29.2
2018-12-27T00:35:28.707Z,29.6
2018-12-27T00:36:19.058Z,30.1
2018-12-27T00:37:09.200Z,30.5
2018-12-27T00:37:58.587Z,30.9
2018-12-27T00:38:48.360Z,31.2
2018-12-27T00:39:38.440Z,31.4
2018-12-27T00:40:28.819Z,31.7
2018-12-27T00:41:19.098Z,31.9
2018-12-27T00:42:08.889Z,32.2
2018-12-27T00:43:00.728Z,32.4
2018-12-27T00:43:48.962Z,32.6
2018-12-27T00:44:38.842Z,32.8
2018-12-27T00:45:29.262Z,32.9
2018-12-27T00:46:17.597Z,33.1
2018-12-27T00:47:08.689Z,33.2
2018-12-27T00:47:58.730Z,33.4
2018-12-27T00:48:49.362Z,33.5
2018-12-27T00:49:39.739Z,33.6
2018-12-27T00:50:29.232Z,33.8
2018-12-27T00:51:19.212Z,33.9
2018-12-27T00:52:09.560Z,33.9
2018-12-27T00:52:59.344Z,33.6
2018-12-27T00:53:49.939Z,32.8
2018-12-27T00:54:39.460Z,32.6
2018-12-27T00:55:30.079Z,32.5
2018-12-27T00:56:19.089Z,32.2
2018-12-27T00:57:10.286Z,31.8
2018-12-27T00:57:59.891Z,31.3
2018-12-27T00:58:50.526Z,30.6
2018-12-27T00:59:39.882Z,30
2018-12-27T01:00:29.188Z,29.4
2018-12-27T01:01:20.349Z,28.9
2018-12-27T01:02:09.521Z,28.6
2018-12-27T01:02:59.806Z,28.5
2018-12-27T01:03:50.665Z,28.3
2018-12-27T01:04:40.526Z,28.1
2018-12-27T01:05:29.644Z,27.9
2018-12-27T01:07:10.069Z,27.6
2018-12-27T01:08:00.666Z,27.8
2018-12-27T01:08:51.296Z,28.6
2018-12-27T01:09:55.998Z,29.3
2018-12-27T01:10:31.373Z,29.9
2018-12-27T01:11:20.881Z,30.2
2018-12-27T01:12:10.941Z,30.6
2018-12-27T01:13:01.016Z,30.9
2018-12-27T01:13:50.921Z,31.3
2018-12-27T01:14:41.086Z,31.6
2018-12-27T01:15:30.590Z,31.8
2018-12-27T01:16:21.574Z,32
2018-12-27T01:17:10.559Z,32.3
2018-12-27T01:18:00.923Z,32.4
2018-12-27T01:18:51.433Z,32.6
2018-12-27T01:19:39.885Z,32.8
2018-12-27T01:20:31.865Z,32.9
2018-12-27T01:21:21.657Z,33.2
2018-12-27T01:22:11.165Z,33.3
2018-12-27T01:23:01.243Z,33.4
2018-12-27T01:23:51.809Z,33.6
2018-12-27T01:24:40.592Z,33.7
2018-12-27T01:25:31.307Z,33.8
2018-12-27T01:26:22.649Z,33.9
2018-12-27T01:27:11.490Z,34
2018-12-27T01:28:01.825Z,34.1
2018-12-27T01:28:50.892Z,33
2018-12-27T01:29:42.767Z,32.8
2018-12-27T01:30:31.247Z,32.6
2018-12-27T01:31:22.565Z,32.4
2018-12-27T01:32:11.574Z,31.9
2018-12-27T01:33:02.724Z,31.4
2018-12-27T01:33:53.354Z,30.9
2018-12-27T01:34:42.549Z,30.3
2018-12-27T01:35:32.881Z,29.6
2018-12-27T01:36:22.430Z,29.1
2018-12-27T01:37:12.690Z,28.6
2018-12-27T01:38:01.569Z,28.4
2018-12-27T01:38:53.637Z,28.3
2018-12-27T01:39:42.621Z,28.1
2018-12-27T01:40:32.626Z,28
2018-12-27T01:41:22.968Z,27.9
2018-12-27T01:42:13.006Z,27.8
2018-12-27T01:43:03.068Z,27.4
2018-12-27T01:43:53.698Z,28.1
2018-12-27T01:44:42.883Z,28.9
2018-12-27T01:45:32.678Z,29.4
2018-12-27T01:46:23.565Z,29.9
2018-12-27T01:47:13.402Z,30.4
2018-12-27T01:48:02.861Z,30.8
2018-12-27T01:48:53.181Z,31.1
2018-12-27T01:49:44.333Z,30.7
2018-12-27T01:50:33.903Z,29.8
2018-12-27T01:51:23.643Z,28
2018-12-27T01:52:12.563Z,26.8
2018-12-27T01:53:03.505Z,26.6
2018-12-27T01:53:53.892Z,26.6
2018-12-27T01:54:44.135Z,27.7
2018-12-27T01:55:34.188Z,28.6
2018-12-27T01:56:24.518Z,29.3
2018-12-27T01:57:13.873Z,29.9
2018-12-27T01:58:04.067Z,30.4
2018-12-27T01:58:54.190Z,30.8
2018-12-27T01:59:43.642Z,31.2
2018-12-27T02:00:33.426Z,31.5
2018-12-27T02:01:24.585Z,31.8
2018-12-27T02:02:14.913Z,32.1
2018-12-27T02:03:03.872Z,32.3
2018-12-27T02:03:55.272Z,32.6
2018-12-27T02:04:44.592Z,32.8
2018-12-27T02:05:34.837Z,32.9
2018-12-27T02:06:24.917Z,33.1
2018-12-27T02:07:15.232Z,33.3
2018-12-27T02:08:05.037Z,33.4
2018-12-27T02:09:44.687Z,33.8
2018-12-27T02:10:35.298Z,33.9
2018-12-27T02:11:25.242Z,34
2018-12-27T02:12:15.387Z,34.1
2018-12-27T02:13:05.657Z,33.7
2018-12-27T02:13:55.176Z,32.9
2018-12-27T02:14:45.294Z,32.7
2018-12-27T02:15:35.287Z,32.6
2018-12-27T02:16:25.067Z,32.3
2018-12-27T02:17:15.709Z,31.8
2018-12-27T02:18:06.071Z,31.3
2018-12-27T02:18:55.803Z,30.7
2018-12-27T02:19:45.288Z,30.1
2018-12-27T02:20:35.633Z,29.5
2018-12-27T02:21:26.789Z,28.9
2018-12-27T02:22:15.513Z,28.4
2018-12-27T02:23:06.351Z,28.3
2018-12-27T02:23:55.306Z,28.2
2018-12-27T02:24:46.468Z,28
2018-12-27T02:26:27.116Z,27.8
2018-12-27T02:27:16.668Z,27.5
2018-12-27T02:28:06.150Z,27.8
2018-12-27T02:28:55.648Z,28.6
2018-12-27T02:29:46.787Z,29.2
2018-12-27T02:30:36.070Z,29.8
2018-12-27T02:31:26.211Z,30.2
2018-12-27T02:32:16.810Z,30.6
2018-12-27T02:33:06.492Z,30.9
2018-12-27T02:33:56.528Z,31.3
2018-12-27T02:34:47.167Z,31.5
2018-12-27T02:35:37.541Z,31.8
2018-12-27T02:36:27.020Z,32.1
2018-12-27T02:37:16.586Z,32.3
2018-12-27T02:38:07.192Z,32.4
2018-12-27T02:38:56.905Z,32.6
2018-12-27T02:39:48.174Z,32.8
2018-12-27T02:40:37.575Z,33
2018-12-27T02:41:26.828Z,33.1
2018-12-27T02:42:17.536Z,33.3
2018-12-27T02:43:07.200Z,33.4
2018-12-27T02:43:57.585Z,33.6
2018-12-27T02:44:46.565Z,33.7
2018-12-27T02:45:37.634Z,33.8
2018-12-27T02:46:26.594Z,33.9
2018-12-27T02:47:17.760Z,34
2018-12-27T02:48:08.167Z,33.6
2018-12-27T02:48:57.592Z,32.8
2018-12-27T02:49:47.418Z,32.6
2018-12-27T02:50:37.484Z,32.5
2018-12-27T02:51:26.952Z,32.1
2018-12-27T02:52:17.512Z,31.8
2018-12-27T02:53:07.569Z,31.3
2018-12-27T02:53:57.937Z,30.7
2018-12-27T02:54:47.417Z,30.1
2018-12-27T02:55:38.056Z,29.4
2018-12-27T02:56:28.104Z,28.9
2018-12-27T02:57:18.770Z,28.5
2018-12-27T02:58:08.504Z,28.4
2018-12-27T02:58:57.707Z,28.2
2018-12-27T02:59:48.147Z,28
2018-12-27T03:01:26.889Z,27.8
2018-12-27T03:02:19.033Z,27.5
2018-12-27T03:03:09.409Z,27.6
2018-12-27T03:03:58.646Z,28.5
2018-12-27T03:04:48.123Z,29.1
2018-12-27T03:05:39.091Z,29.7
2018-12-27T03:06:27.964Z,30.2
2018-12-27T03:07:19.400Z,30.5
2018-12-27T03:08:08.606Z,30.9
2018-12-27T03:08:58.161Z,31.2
2018-12-27T03:09:49.172Z,31.4
2018-12-27T03:10:39.592Z,31.7
2018-12-27T03:11:28.312Z,31.9
2018-12-27T03:12:19.253Z,32.2
2018-12-27T03:13:07.920Z,32.4
2018-12-27T03:13:58.526Z,32.6
2018-12-27T03:14:49.753Z,32.8
2018-12-27T03:15:39.785Z,32.9
2018-12-27T03:16:29.770Z,33.1
2018-12-27T03:17:19.671Z,33.3
2018-12-27T03:18:09.701Z,33.4
2018-12-27T03:18:59.427Z,33.5
2018-12-27T03:19:49.809Z,33.6
2018-12-27T03:20:39.478Z,33.8
2018-12-27T03:21:29.668Z,33.8
2018-12-27T03:22:19.953Z,33.9
2018-12-27T03:23:09.720Z,34.1
2018-12-27T03:23:59.463Z,33.1
2018-12-27T03:24:49.854Z,32.7
2018-12-27T03:25:39.228Z,32.6
2018-12-27T03:26:30.640Z,32.4
2018-12-27T03:27:19.326Z,32
2018-12-27T03:28:09.127Z,31.6
2018-12-27T03:28:59.441Z,31
2018-12-27T03:29:50.020Z,30.4
2018-12-27T03:30:39.646Z,29.8
2018-12-27T03:31:30.433Z,29.2
2018-12-27T03:32:20.349Z,28.7
2018-12-27T03:33:10.062Z,28.4
2018-12-27T03:34:00.179Z,28.3
2018-12-27T03:34:50.573Z,28.1
2018-12-27T03:35:40.109Z,27.9
2018-12-27T03:37:20.840Z,27.7
2018-12-27T03:38:10.588Z,27.4
2018-12-27T03:39:00.749Z,27.9
2018-12-27T03:39:50.418Z,28.8
2018-12-27T03:40:40.425Z,29.3
2018-12-27T03:41:30.973Z,29.9
2018-12-27T03:42:19.817Z,30.3
2018-12-27T03:43:10.932Z,30.6
2018-12-27T03:43:59.892Z,31
2018-12-27T03:44:50.441Z,31.1
2018-12-27T03:45:40.847Z,30.1
2018-12-27T03:46:29.726Z,28.6
2018-12-27T03:47:20.899Z,27.1
2018-12-27T03:48:11.297Z,26.8
2018-12-27T03:49:02.074Z,26.8
2018-12-27T03:49:51.024Z,27.7
2018-12-27T03:50:40.799Z,28.6
2018-12-27T03:51:30.924Z,29.4
2018-12-27T03:52:21.666Z,29.9
2018-12-27T03:53:11.571Z,30.4
2018-12-27T03:54:01.865Z,30.8
2018-12-27T03:54:51.709Z,31.1
2018-12-27T03:55:40.804Z,31.4
2018-12-27T03:56:31.554Z,31.7
2018-12-27T03:57:21.327Z,32
2018-12-27T03:58:11.838Z,32.2
2018-12-27T03:59:01.133Z,32.4
2018-12-27T03:59:52.158Z,32.6
2018-12-27T04:00:42.356Z,32.8
2018-12-27T04:01:32.173Z,33
2018-12-27T04:02:21.689Z,33.2
2018-12-27T04:03:12.168Z,33.3
2018-12-27T04:04:08.268Z,33.4
2018-12-27T04:04:53.233Z,33.6
2018-12-27T04:05:42.901Z,33.7
2018-12-27T04:06:32.153Z,33.8
2018-12-27T04:07:22.718Z,33.9
2018-12-27T04:08:12.861Z,34
2018-12-27T04:09:01.767Z,34.1
2018-12-27T04:09:53.564Z,33.6
2018-12-27T04:10:43.276Z,32.9
2018-12-27T04:11:33.101Z,32.7
2018-12-27T04:12:24.167Z,32.5
2018-12-27T04:13:13.736Z,32.2
2018-12-27T04:14:02.680Z,31.8
2018-12-27T04:14:53.272Z,31.3
2018-12-27T04:15:43.565Z,30.6
2018-12-27T04:16:33.950Z,30
2018-12-27T04:17:24.049Z,29.4
2018-12-27T04:18:14.010Z,28.9
2018-12-27T04:19:04.038Z,28.6
2018-12-27T04:19:53.630Z,28.5
2018-12-27T04:20:43.669Z,28.3
2018-12-27T04:21:33.440Z,28.1
2018-12-27T04:22:23.330Z,27.9
2018-12-27T04:24:03.912Z,27.5
2018-12-27T04:25:24.420Z,28.1
2018-12-27T04:25:43.764Z,29.2
2018-12-27T04:26:33.611Z,29.4
2018-12-27T04:27:23.240Z,29.9
2018-12-27T04:28:13.372Z,30.3
2018-12-27T04:29:03.204Z,30.7
2018-12-27T04:29:53.526Z,31
2018-12-27T04:30:44.351Z,31.3
2018-12-27T04:31:34.892Z,31.6
2018-12-27T04:32:24.428Z,31.8
2018-12-27T04:33:14.711Z,32
2018-12-27T04:34:12.774Z,32.2
2018-12-27T04:34:55.255Z,32.4
2018-12-27T04:35:44.717Z,32.6
2018-12-27T04:36:35.347Z,32.8
2018-12-27T04:37:25.046Z,32.9
2018-12-27T04:38:13.966Z,33.1
2018-12-27T04:39:04.554Z,33.2
2018-12-27T04:39:55.204Z,33.3
2018-12-27T04:40:45.854Z,33.5
2018-12-27T04:41:35.682Z,33.6
2018-12-27T04:42:25.979Z,33.7
2018-12-27T04:43:15.692Z,33.8
2018-12-27T04:44:05.806Z,33.9
2018-12-27T04:44:55.262Z,34
2018-12-27T05:02:14.610Z,28.9
2018-12-27T05:03:04.898Z,29.6
2018-12-27T05:03:54.650Z,30
2018-12-27T05:04:44.386Z,30.4
2018-12-27T05:05:35.355Z,30.7
2018-12-27T05:06:23.938Z,31
2018-12-27T05:07:14.337Z,31.2
2018-12-27T05:08:06.021Z,31.4
2018-12-27T05:08:55.094Z,31.7
2018-12-27T05:09:44.120Z,31.9
2018-12-27T05:10:34.829Z,32.1
2018-12-27T05:11:25.572Z,32.3
2018-12-27T05:12:14.642Z,32.4
2018-12-27T05:13:05.004Z,32.6
2018-12-27T05:13:54.959Z,32.8
2018-12-27T05:14:45.071Z,32.9
2018-12-27T05:15:35.433Z,33.1
2018-12-27T05:16:24.606Z,33.2
2018-12-27T05:17:15.544Z,33.3
2018-12-27T05:18:06.138Z,33.4
2018-12-27T05:18:55.701Z,33.6
2018-12-27T05:19:45.404Z,33.7
2018-12-27T05:20:35.781Z,33.4
2018-12-27T05:21:25.061Z,32.3
2018-12-27T05:22:14.735Z,30.4
2018-12-27T05:23:05.956Z,28.8
2018-12-27T05:23:54.692Z,28.4
2018-12-27T05:24:44.651Z,28.3
2018-12-27T05:25:35.558Z,29.1
2018-12-27T05:26:25.303Z,29.9
2018-12-27T05:27:16.299Z,30.4
2018-12-27T05:28:06.111Z,30.9
2018-12-27T05:28:56.400Z,31.2
2018-12-27T05:29:45.206Z,31.5
2018-12-27T05:30:35.369Z,31.8
2018-12-27T05:31:25.635Z,32
2018-12-27T05:32:16.470Z,32.3
2018-12-27T05:33:05.846Z,32.4
2018-12-27T05:33:56.958Z,32.6
2018-12-27T05:34:47.251Z,32.7
2018-12-27T05:35:36.985Z,32.9
2018-12-27T05:36:26.025Z,33
2018-12-27T05:37:18.972Z,33.1
2018-12-27T05:38:06.142Z,33.2
2018-12-27T05:38:56.666Z,33.3
2018-12-27T05:39:47.293Z,33.4
2018-12-27T05:40:36.777Z,33.1
2018-12-27T05:41:27.114Z,32.3
2018-12-27T05:42:16.597Z,32.1
2018-12-27T05:43:07.314Z,32
2018-12-27T05:43:57.292Z,31.8
2018-12-27T05:44:47.357Z,31.4
2018-12-27T05:45:36.579Z,30.9
2018-12-27T05:46:26.642Z,30.4
2018-12-27T05:47:18.062Z,29.8
2018-12-27T05:48:08.079Z,29.1
2018-12-27T05:48:57.959Z,28.6
2018-12-27T05:49:47.494Z,28.3
2018-12-27T05:50:38.044Z,28.1
2018-12-27T05:51:27.506Z,28
2018-12-27T05:53:07.081Z,27.7
2018-12-27T05:53:57.451Z,27.6
2018-12-27T05:54:48.904Z,27.3
2018-12-27T05:55:40.411Z,27.4
2018-12-27T05:56:26.536Z,28.3
2018-12-27T05:57:18.101Z,28.9
2018-12-27T05:58:07.764Z,29.4
2018-12-27T05:58:57.241Z,29.8
2018-12-27T05:59:48.205Z,30.3
2018-12-27T06:00:38.474Z,30.6
2018-12-27T06:01:27.978Z,30.9
2018-12-27T06:02:17.440Z,31.2
2018-12-27T06:03:09.228Z,31.4
2018-12-27T06:03:58.621Z,31.6
2018-12-27T06:04:47.911Z,31.9
2018-12-27T06:05:38.276Z,32.1
2018-12-27T06:06:28.782Z,32.3
2018-12-27T06:07:18.881Z,32.5
2018-12-27T06:08:08.175Z,32.6
2018-12-27T06:08:59.325Z,32.8
2018-12-27T06:09:48.799Z,32.9
2018-12-27T06:10:39.121Z,33.1
2018-12-27T06:11:28.591Z,33.3
2018-12-27T06:12:19.518Z,33.4
2018-12-27T06:13:09.054Z,33.5
2018-12-27T06:13:59.367Z,33.6
2018-12-27T06:14:48.258Z,33.8
2018-12-27T06:15:39.480Z,33.8
2018-12-27T06:16:28.747Z,33.9
2018-12-27T06:17:18.456Z,33.8
2018-12-27T06:18:09.384Z,32.8
2018-12-27T06:18:58.795Z,32.6
2018-12-27T06:19:49.505Z,32.4
2018-12-27T06:20:38.390Z,32.1
2018-12-27T06:21:28.735Z,31.8
2018-12-27T06:22:18.847Z,31.2
2018-12-27T06:23:09.750Z,30.7
2018-12-27T06:24:00.842Z,30.1
2018-12-27T06:24:50.333Z,29.4
2018-12-27T06:25:40.193Z,28.9
2018-12-27T06:26:30.735Z,28.5
2018-12-27T06:27:19.730Z,28.4
2018-12-27T06:28:08.895Z,28.2
2018-12-27T06:29:00.321Z,28
2018-12-27T06:30:41.059Z,27.7
2018-12-27T06:31:29.669Z,27.4
2018-12-27T06:32:20.929Z,27.5
2018-12-27T06:33:10.960Z,28.4
2018-12-27T06:34:00.252Z,29
2018-12-27T06:34:50.747Z,29.5
2018-12-27T06:35:40.125Z,29.9
2018-12-27T06:36:29.869Z,30.3
2018-12-27T06:37:21.459Z,30.6
2018-12-27T06:38:11.269Z,31
2018-12-27T06:39:01.394Z,31.3
2018-12-27T06:39:51.053Z,31.5
2018-12-27T06:40:40.831Z,31.8
2018-12-27T06:41:31.484Z,32
2018-12-27T06:42:21.317Z,32.2
2018-12-27T06:43:10.213Z,32.4
2018-12-27T06:44:01.436Z,32.6
2018-12-27T06:44:51.131Z,32.8
2018-12-27T06:45:41.525Z,32.9
2018-12-27T06:46:31.324Z,33.1
2018-12-27T06:47:21.294Z,33.3
2018-12-27T06:48:11.641Z,33.4
2018-12-27T06:49:03.593Z,33.5
2018-12-27T06:49:50.918Z,33.6
2018-12-27T06:50:41.508Z,33.8
2018-12-27T06:51:31.363Z,33.9
2018-12-27T06:52:21.588Z,33.9
2018-12-27T06:53:12.094Z,34
2018-12-27T06:54:01.558Z,33.7
2018-12-27T06:54:52.773Z,32.8
2018-12-27T06:55:42.220Z,32.6
2018-12-27T06:56:32.215Z,32.4
2018-12-27T06:57:22.535Z,32.1
2018-12-27T06:58:11.771Z,31.7
2018-12-27T06:59:02.387Z,31.1
2018-12-27T06:59:51.458Z,30.6
2018-12-27T07:00:42.471Z,29.9
2018-12-27T07:01:32.898Z,29.4
2018-12-27T07:02:22.060Z,29
2018-12-27T07:03:12.670Z,28.7
2018-12-27T07:04:02.433Z,28.5
2018-12-27T07:04:56.355Z,28.3
2018-12-27T07:05:43.120Z,28.1
2018-12-27T07:06:32.980Z,27.9
2018-12-27T07:08:13.065Z,27.4
2018-12-27T07:09:03.084Z,27.9
2018-12-27T07:09:52.309Z,28.6
2018-12-27T07:10:42.871Z,29.2
2018-12-27T07:11:32.728Z,29.7
2018-12-27T07:12:22.585Z,30.1
2018-12-27T07:13:13.163Z,30.5
2018-12-27T07:14:03.143Z,30.8
2018-12-27T07:14:52.883Z,30.9
2018-12-27T07:15:43.351Z,29.9
2018-12-27T07:16:32.751Z,28.6
2018-12-27T07:17:22.848Z,27.1
2018-12-27T07:18:12.658Z,26.6
2018-12-27T07:19:06.081Z,26.5
2018-12-27T07:19:53.608Z,27.4
2018-12-27T07:20:44.671Z,28.3
2018-12-27T07:21:33.635Z,29
2018-12-27T07:22:23.970Z,29.6
2018-12-27T07:23:14.338Z,30.1
2018-12-27T07:24:04.082Z,30.4
2018-12-27T07:24:53.376Z,30.8
2018-12-27T07:25:44.592Z,31.1
2018-12-27T07:26:33.410Z,31.4
2018-12-27T07:27:23.273Z,31.7
2018-12-27T07:28:14.112Z,31.9
2018-12-27T07:29:04.987Z,32.1
2018-12-27T07:29:53.100Z,32.4
2018-12-27T07:30:44.854Z,32.6
2018-12-27T07:31:34.483Z,32.7
2018-12-27T07:32:24.370Z,32.9
2018-12-27T07:33:14.168Z,33
2018-12-27T07:34:04.470Z,33.1
2018-12-27T07:35:02.267Z,33.3
2018-12-27T07:35:44.885Z,33.4
2018-12-27T07:36:33.824Z,33.6
2018-12-27T07:37:24.969Z,33.7
2018-12-27T07:38:15.302Z,33.8
2018-12-27T07:39:05.449Z,33.9
2018-12-27T07:39:55.689Z,34
2018-12-27T07:40:45.234Z,33.6
2018-12-27T07:41:34.939Z,32.8
2018-12-27T07:42:25.332Z,32.6
2018-12-27T07:43:15.094Z,32.4
2018-12-27T07:44:05.804Z,32.2
2018-12-27T07:44:54.992Z,31.7
2018-12-27T07:45:44.696Z,31.2
2018-12-27T07:46:35.414Z,30.7
2018-12-27T07:47:24.834Z,30.1
2018-12-27T07:48:15.709Z,29.5
2018-12-27T07:49:05.498Z,29.1
2018-12-27T07:49:55.541Z,28.8
2018-12-27T07:50:46.154Z,28.6
2018-12-27T07:51:35.653Z,28.3
2018-12-27T07:52:26.637Z,28.2
2018-12-27T07:53:16.313Z,28
2018-12-27T07:54:07.161Z,27.9
2018-12-27T07:54:56.138Z,27.5
2018-12-27T07:55:46.226Z,28.1
2018-12-27T07:56:36.780Z,28.9
2018-12-27T07:57:26.961Z,29.4
2018-12-27T07:58:15.838Z,29.9
2018-12-27T07:59:06.732Z,30.3
2018-12-27T07:59:56.754Z,30.7
2018-12-27T08:00:46.033Z,30.9
2018-12-27T08:01:36.585Z,31.3
2018-12-27T08:02:26.188Z,31.6
2018-12-27T08:03:16.707Z,31.8
2018-12-27T08:04:06.800Z,32
2018-12-27T08:05:03.658Z,32.3
2018-12-27T08:05:46.083Z,32.4
2018-12-27T08:06:36.695Z,32.6
2018-12-27T08:07:26.852Z,32.8
2018-12-27T08:08:17.335Z,32.9
2018-12-27T08:09:06.282Z,33.1
2018-12-27T08:09:56.919Z,33.3
2018-12-27T08:10:46.742Z,33.4
2018-12-27T08:11:37.297Z,33.5
2018-12-27T08:12:27.407Z,33.6
2018-12-27T08:13:17.112Z,33.8
2018-12-27T08:14:06.687Z,33.9
2018-12-27T08:14:57.822Z,34
2018-12-27T08:15:48.236Z,33.8
2018-12-27T08:16:37.937Z,32.8
2018-12-27T08:17:27.667Z,32.6
2018-12-27T08:18:17.722Z,32.4
2018-12-27T08:19:07.274Z,32.3
2018-12-27T08:19:57.914Z,32.1
2018-12-27T08:20:46.791Z,31.9
2018-12-27T08:21:37.159Z,31.8
2018-12-27T08:22:28.539Z,31.7
2018-12-27T08:23:16.994Z,31.6
2018-12-27T08:24:08.449Z,31.5
2018-12-27T08:24:58.186Z,31.4
2018-12-27T08:25:46.854Z,30.9
2018-12-27T08:26:39.189Z,30.1
2018-12-27T08:27:28.068Z,29.6
2018-12-27T08:28:17.706Z,29.3
2018-12-27T08:29:08.214Z,29.1
2018-12-27T08:29:58.478Z,28.8
2018-12-27T08:30:48.847Z,28.3
2018-12-27T08:31:38.943Z,29
2018-12-27T08:32:27.889Z,29.7
2018-12-27T08:33:18.238Z,30.3
2018-12-27T08:34:08.271Z,30.7
2018-12-27T08:34:58.301Z,31
2018-12-27T08:35:47.827Z,31.3
2018-12-27T08:36:39.491Z,31.5
2018-12-27T08:37:29.271Z,31.8
2018-12-27T08:38:18.806Z,31.9
2018-12-27T08:39:09.145Z,32.1
2018-12-27T08:39:58.341Z,32.3
2018-12-27T08:40:48.393Z,32.5
2018-12-27T08:41:38.508Z,32.6
2018-12-27T08:42:28.820Z,32.8
2018-12-27T08:43:19.765Z,33
2018-12-27T08:44:08.975Z,33.1
2018-12-27T08:44:59.003Z,33.3
2018-12-27T08:45:49.313Z,33.4
2018-12-27T08:46:39.921Z,33.5
2018-12-27T08:47:31.956Z,33.7
2018-12-27T08:48:19.457Z,33.8
2018-12-27T08:49:09.521Z,33.9
2018-12-27T08:49:59.588Z,33.9
2018-12-27T08:50:48.870Z,33.4
2018-12-27T08:51:39.757Z,32.3
2018-12-27T08:52:28.778Z,30.2
2018-12-27T08:53:19.694Z,28.9
2018-12-27T08:54:10.130Z,28.8
2018-12-27T08:54:59.913Z,28.9
2018-12-27T08:55:50.032Z,29.9
2018-12-27T08:56:40.295Z,30.7
2018-12-27T08:57:30.930Z,31.2
2018-12-27T08:58:19.865Z,31.6
2018-12-27T08:59:10.740Z,31.9
2018-12-27T09:00:00.274Z,32.2
2018-12-27T09:00:49.444Z,32.5
2018-12-27T09:16:37.078Z,31.6
2018-12-27T09:17:27.759Z,31.5
2018-12-27T09:18:17.283Z,31.4
2018-12-27T09:19:08.390Z,30.6
2018-12-27T09:19:57.846Z,30
2018-12-27T09:20:47.678Z,29.6
2018-12-27T09:21:36.968Z,29.3
2018-12-27T09:22:27.530Z,29.1
2018-12-27T09:23:18.124Z,28.9
2018-12-27T09:24:08.387Z,28.3
2018-12-27T09:24:57.615Z,28.9
2018-12-27T09:25:50.498Z,29.6
2018-12-27T09:26:38.275Z,30.3
2018-12-27T09:27:28.667Z,30.7
2018-12-27T09:28:18.150Z,31
2018-12-27T09:29:08.528Z,31.3
2018-12-27T09:29:58.230Z,31.6
2018-12-27T09:30:47.094Z,31.8
2018-12-27T09:31:39.812Z,31.9
2018-12-27T09:32:29.537Z,32.2
2018-12-27T09:33:19.017Z,32.4
2018-12-27T09:34:08.303Z,32.6
2018-12-27T09:34:57.541Z,32.7
2018-12-27T09:35:48.446Z,32.8
2018-12-27T09:36:39.274Z,33
2018-12-27T09:37:29.050Z,33.1
2018-12-27T09:38:19.338Z,33.3
2018-12-27T09:39:09.714Z,33.4
2018-12-27T09:39:58.731Z,33.6
2018-12-27T09:40:49.040Z,33.7
2018-12-27T09:41:39.404Z,33.8
2018-12-27T09:42:30.313Z,33.9
2018-12-27T09:43:18.744Z,34
2018-12-27T09:44:10.126Z,33.8
2018-12-27T09:45:00.359Z,32.9
2018-12-27T09:45:48.846Z,32.6
2018-12-27T09:46:38.828Z,32.5
2018-12-27T09:47:29.688Z,32.3
2018-12-27T09:48:19.268Z,32.2
2018-12-27T09:49:09.590Z,32
2018-12-27T09:49:59.915Z,31.8
2018-12-27T09:50:50.091Z,31.8
2018-12-27T09:51:40.336Z,31.6
2018-12-27T09:52:30.181Z,31.5
2018-12-27T09:53:19.868Z,31.4
2018-12-27T09:54:09.103Z,30.9
2018-12-27T09:54:59.510Z,30.2
2018-12-27T09:55:50.138Z,29.7
2018-12-27T09:56:40.480Z,29.3
2018-12-27T09:57:30.433Z,29.1
2018-12-27T09:58:19.990Z,28.9
2018-12-27T09:59:09.458Z,28.3
2018-12-27T09:59:59.870Z,28.8
2018-12-27T10:00:49.673Z,29.6
2018-12-27T10:01:40.107Z,30.1
2018-12-27T10:02:29.665Z,30.6
2018-12-27T10:03:19.315Z,30.9
2018-12-27T10:04:10.149Z,31.2
2018-12-27T10:04:59.445Z,31.4
2018-12-27T10:05:49.997Z,31.7
2018-12-27T10:06:41.398Z,31.9
2018-12-27T10:07:30.267Z,32.1
2018-12-27T10:08:19.036Z,32.3
2018-12-27T10:09:09.950Z,32.5
2018-12-27T10:10:01.317Z,32.6
2018-12-27T10:10:51.085Z,32.8
2018-12-27T10:11:41.195Z,33
2018-12-27T10:12:31.712Z,33.1
2018-12-27T10:13:21.142Z,33.3
2018-12-27T10:14:12.062Z,33.4
2018-12-27T10:15:02.056Z,33.6
2018-12-27T10:15:51.137Z,33.6
2018-12-27T10:16:42.217Z,33.8
2018-12-27T10:17:31.727Z,33.8
2018-12-27T10:18:21.544Z,33.9
2018-12-27T10:19:11.294Z,34.1
2018-12-27T10:20:01.829Z,33.2
2018-12-27T10:20:52.317Z,32.7
2018-12-27T10:21:42.294Z,32.6
2018-12-27T10:22:31.855Z,32.4
2018-12-27T10:23:22.651Z,32.2
2018-12-27T10:24:11.434Z,32
2018-12-27T10:25:02.266Z,31.9
2018-12-27T10:25:52.029Z,31.7
2018-12-27T10:26:41.554Z,31.6
2018-12-27T10:27:32.696Z,31.5
2018-12-27T10:28:22.874Z,31.4
2018-12-27T10:29:12.594Z,31.2
2018-12-27T10:30:01.905Z,30.4
2018-12-27T10:30:59.564Z,29.8
2018-12-27T10:31:42.479Z,29.4
2018-12-27T10:32:32.741Z,29.1
2018-12-27T10:33:23.118Z,28.9
2018-12-27T10:34:13.131Z,28.4
2018-12-27T10:35:03.254Z,28.6
2018-12-27T10:35:54.073Z,29.4
2018-12-27T10:36:45.493Z,30
2018-12-27T10:37:33.085Z,30.6
2018-12-27T10:38:24.226Z,30.9
2018-12-27T10:39:12.378Z,31.1
2018-12-27T10:40:03.540Z,31.4
2018-12-27T10:40:53.303Z,31.6
2018-12-27T10:41:43.923Z,31.8
2018-12-27T10:42:33.131Z,30.7
2018-12-27T10:43:23.425Z,29.6
2018-12-27T10:44:13.795Z,28
2018-12-27T10:45:03.333Z,26.8
2018-12-27T10:45:53.382Z,26.4
2018-12-27T10:46:43.782Z,26.4
2018-12-27T10:47:33.613Z,27.4
2018-12-27T10:48:23.540Z,28.3
2018-12-27T10:49:14.707Z,29.1
2018-12-27T10:50:03.770Z,29.8
2018-12-27T10:50:53.722Z,30.4
2018-12-27T10:51:44.700Z,30.8
2018-12-27T10:52:34.472Z,31.1
2018-12-27T10:53:23.957Z,31.4
2018-12-27T10:54:14.480Z,31.7
2018-12-27T10:55:04.280Z,32
2018-12-27T10:55:54.052Z,32.2
2018-12-27T10:56:45.003Z,32.4
2018-12-27T10:57:37.435Z,32.6
2018-12-27T10:58:23.677Z,32.8
2018-12-27T10:59:14.929Z,33
2018-12-27T11:00:05.195Z,33.1
2018-12-27T11:00:54.757Z,33.3
2018-12-27T11:01:44.979Z,33.4
2018-12-27T11:02:35.061Z,33.6
2018-12-27T11:03:32.604Z,33.7
2018-12-27T11:04:15.559Z,33.9
2018-12-27T11:05:05.854Z,33.9
2018-12-27T11:05:55.158Z,34.1
2018-12-27T11:06:45.401Z,34.1
2018-12-27T11:07:35.674Z,33.7
2018-12-27T11:08:24.586Z,32.9
2018-12-27T11:09:14.161Z,32.7
2018-12-27T11:10:06.260Z,32.5
2018-12-27T11:10:54.278Z,32.3
2018-12-27T11:11:45.084Z,32.1
2018-12-27T11:12:35.991Z,31.9
2018-12-27T11:13:25.511Z,31.8
2018-12-27T11:14:15.604Z,31.7
2018-12-27T11:15:05.950Z,31.6
2018-12-27T11:15:56.180Z,31.5
2018-12-27T11:16:45.452Z,31.4
2018-12-27T11:17:35.752Z,30.7
2018-12-27T11:18:26.112Z,30
2018-12-27T11:19:15.676Z,29.5
2018-12-27T11:20:06.247Z,29.3
2018-12-27T11:20:56.327Z,29
2018-12-27T11:21:46.659Z,28.6
2018-12-27T11:22:36.969Z,28.5
2018-12-27T11:23:26.192Z,29.3
2018-12-27T11:24:16.234Z,29.8
2018-12-27T11:25:06.073Z,30.2
2018-12-27T11:25:56.099Z,30.5
2018-12-27T11:26:47.514Z,30.9
2018-12-27T11:27:36.729Z,31.1
2018-12-27T11:28:26.494Z,31.4
2018-12-27T11:29:16.296Z,31.6
2018-12-27T11:30:06.699Z,31.8
2018-12-27T11:30:56.187Z,32.1
2018-12-27T11:31:47.304Z,32.3
2018-12-27T11:32:37.094Z,32.5
2018-12-27T11:33:26.347Z,32.7
2018-12-27T11:34:16.421Z,32.8
2018-12-27T11:35:07.624Z,33
2018-12-27T11:36:03.803Z,33.1
2018-12-27T11:36:46.778Z,33.3
2018-12-27T11:37:37.193Z,33.4
2018-12-27T11:38:27.182Z,33.6
2018-12-27T11:39:16.381Z,33.7
2018-12-27T11:40:06.768Z,33.8
2018-12-27T11:40:57.578Z,33.9
2018-12-27T11:41:47.410Z,33.9
2018-12-27T11:42:37.194Z,34
2018-12-27T11:43:27.525Z,33
2018-12-27T11:44:16.721Z,32.7
2018-12-27T11:45:07.642Z,32.6
2018-12-27T11:45:58.231Z,32.3
2018-12-27T11:46:46.928Z,31.9
2018-12-27T11:47:37.890Z,31.4
2018-12-27T11:48:27.606Z,30.9
2018-12-27T11:49:17.630Z,30.3
2018-12-27T11:50:41.402Z,29.3
2018-12-27T11:51:31.008Z,28.5
2018-12-27T11:52:22.857Z,28.1
2018-12-27T11:53:11.587Z,28.1
2018-12-27T11:54:01.360Z,27.9
2018-12-27T11:54:51.771Z,27.7
2018-12-27T11:55:42.027Z,27.6
2018-12-27T11:56:32.100Z,27.4
2018-12-27T11:57:21.027Z,27.3
2018-12-27T11:58:12.722Z,27.3
2018-12-27T11:59:01.719Z,27.1
2018-12-27T11:59:52.058Z,26.9
2018-12-27T12:00:42.091Z,27.7
2018-12-27T12:01:32.695Z,28.5
2018-12-27T12:02:22.225Z,29.1
2018-12-27T12:03:11.212Z,29.6
2018-12-27T12:04:02.312Z,30
2018-12-27T12:04:52.611Z,30.4
2018-12-27T12:05:41.651Z,30.7
2018-12-27T12:06:32.554Z,30.9